createdAt,value
2019-05-03T00:00:57.225Z,90.20
2019-05-03T00:03:25.675Z,90.10
2019-05-03T00:05:55.829Z,90.60
2019-05-03T00:08:24.378Z,90.40
2019-05-03T00:10:52.965Z,90.50
2019-05-03T00:13:21.884Z,91.00
2019-05-03T00:15:52.291Z,90.70
2019-05-03T00:18:22.137Z,90.70
2019-05-03T00:20:52.575Z,90.70
2019-05-03T00:23:22.766Z,91.10
2019-05-03T00:25:52.355Z,91.20
2019-05-03T00:28:21.692Z,91.50
2019-05-03T00:30:51.903Z,92.70
2019-05-03T00:33:22.287Z,93.10
2019-05-03T00:36:08.698Z,93.30
2019-05-03T00:38:37.222Z,93.30
2019-05-03T00:41:05.674Z,93.60
2019-05-03T00:43:34.238Z,93.70
2019-05-03T00:46:02.891Z,93.50
2019-05-03T00:48:32.626Z,93.50
2019-05-03T00:51:02.442Z,93.70
2019-05-03T00:53:31.745Z,93.60
2019-05-03T00:56:01.770Z,94.00
2019-05-03T00:58:31.834Z,93.80
2019-05-03T01:01:02.475Z,94.00
2019-05-03T01:03:32.420Z,94.30
2019-05-03T01:06:02.276Z,94.20
2019-05-03T01:08:32.672Z,94.20
2019-05-03T01:11:02.107Z,94.20
2019-05-03T01:13:32.084Z,95.10
2019-05-03T01:16:22.518Z,95.50
2019-05-03T01:18:52.349Z,96.00
2019-05-03T01:21:22.629Z,95.60
2019-05-03T01:23:52.528Z,96.00
2019-05-03T01:26:22.683Z,96.10
2019-05-03T01:28:52.132Z,96.40
2019-05-03T01:31:22.879Z,96.60
2019-05-03T01:33:51.644Z,96.10
2019-05-03T01:36:22.656Z,95.70
2019-05-03T01:38:52.913Z,95.50
2019-05-03T01:41:21.727Z,95.70
2019-05-03T01:43:52.426Z,95.80
2019-05-03T01:46:22.600Z,95.50
2019-05-03T01:48:52.405Z,95.60
2019-05-03T01:51:22.562Z,95.20
2019-05-03T01:53:52.356Z,96.20
2019-05-03T01:56:22.328Z,96.20
2019-05-03T01:58:52.427Z,96.30
2019-05-03T02:01:34.693Z,96.60
2019-05-03T02:04:04.829Z,96.60
2019-05-03T02:06:33.358Z,96.30
2019-05-03T02:09:01.870Z,96.60
2019-05-03T02:11:30.313Z,96.00
2019-05-03T02:13:58.757Z,96.10
2019-05-03T02:16:27.234Z,96.00
2019-05-03T02:18:55.680Z,96.30
2019-05-03T02:21:24.129Z,96.60
2019-05-03T02:23:52.626Z,96.30
2019-05-03T02:26:22.443Z,95.80
2019-05-03T02:28:52.721Z,96.70
2019-05-03T02:31:23.119Z,96.50
2019-05-03T02:33:53.486Z,96.70
2019-05-03T02:36:23.194Z,96.70
2019-05-03T02:38:53.516Z,96.20
2019-05-03T02:41:22.823Z,96.40
2019-05-03T02:43:56.161Z,96.30
2019-05-03T02:46:29.108Z,95.60
2019-05-03T02:49:06.382Z,94.40
2019-05-03T02:51:36.014Z,94.20
2019-05-03T02:54:05.596Z,95.10
2019-05-03T02:56:35.643Z,95.50
2019-05-03T02:59:06.214Z,95.90
2019-05-03T03:01:35.904Z,96.00
2019-05-03T03:04:05.545Z,96.30
2019-05-03T03:06:36.435Z,96.00
2019-05-03T03:09:05.574Z,95.40
2019-05-03T03:11:37.152Z,95.80
2019-05-03T03:14:07.437Z,95.40
2019-05-03T03:16:37.442Z,95.40
2019-05-03T03:19:06.857Z,95.80
2019-05-03T03:21:39.171Z,93.80
2019-05-03T03:24:17.050Z,94.10
2019-05-03T03:26:47.656Z,94.40
2019-05-03T03:29:18.024Z,94.30
2019-05-03T03:31:56.838Z,94.10
2019-05-03T03:34:28.052Z,94.30
2019-05-03T03:37:03.784Z,94.10
2019-05-03T03:39:26.513Z,94.30
2019-05-03T03:41:56.165Z,94.00
2019-05-03T03:44:26.595Z,93.40
2019-05-03T03:46:57.291Z,94.40
2019-05-03T03:49:28.346Z,95.10
2019-05-03T03:51:59.605Z,95.20
2019-05-03T03:54:31.158Z,94.80
2019-05-03T03:57:04.841Z,94.10
2019-05-03T03:59:30.202Z,94.60
2019-05-03T04:01:59.113Z,94.10
2019-05-03T04:04:29.351Z,94.10
2019-05-03T04:07:01.214Z,93.60
2019-05-03T04:09:28.353Z,93.90
2019-05-03T04:11:57.132Z,94.70
2019-05-03T04:14:36.025Z,94.30
2019-05-03T04:17:21.535Z,93.50
2019-05-03T04:19:55.781Z,94.40
2019-05-03T04:22:25.407Z,94.80
2019-05-03T04:24:55.282Z,94.50
2019-05-03T04:27:27.272Z,93.30
2019-05-03T04:29:55.742Z,93.10
2019-05-03T04:32:28.111Z,93.70
2019-05-03T04:34:55.916Z,94.20
2019-05-03T04:37:26.603Z,94.20
2019-05-03T04:39:56.067Z,94.20
2019-05-03T04:42:25.439Z,94.40
2019-05-03T04:44:56.222Z,94.50
2019-05-03T04:47:26.056Z,94.00
2019-05-03T04:49:55.503Z,93.90
2019-05-03T04:52:25.847Z,93.70
2019-05-03T04:54:56.546Z,94.60
2019-05-03T04:57:39.324Z,94.60
2019-05-03T04:59:56.343Z,94.40
2019-05-03T05:02:26.393Z,93.40
2019-05-03T05:04:55.807Z,93.40
2019-05-03T05:07:25.980Z,94.10
2019-05-03T05:09:56.124Z,92.30
2019-05-03T05:12:25.638Z,92.50
2019-05-03T05:14:56.397Z,91.80
2019-05-03T05:17:31.895Z,91.70
2019-05-03T05:20:05.353Z,92.10
2019-05-03T05:22:35.038Z,91.50
2019-05-03T05:25:06.701Z,90.90
2019-05-03T05:27:55.382Z,90.60
2019-05-03T05:30:25.084Z,90.50
2019-05-03T05:32:55.258Z,90.60
2019-05-03T05:35:24.830Z,88.40
2019-05-03T05:37:54.663Z,90.30
2019-05-03T05:40:24.575Z,90.20
2019-05-03T05:42:54.580Z,89.40
2019-05-03T05:45:24.581Z,91.10
2019-05-03T05:47:54.943Z,89.60
2019-05-03T05:50:27.922Z,89.20
2019-05-03T05:52:56.409Z,90.20
2019-05-03T05:55:26.501Z,90.10
2019-05-03T05:58:04.762Z,90.60
2019-05-03T06:00:28.505Z,90.80
2019-05-03T06:02:56.957Z,91.00
2019-05-03T06:05:26.561Z,90.50
2019-05-03T06:08:11.132Z,90.30
2019-05-03T06:10:47.215Z,90.10
2019-05-03T06:13:20.413Z,88.80
2019-05-03T06:15:50.514Z,90.00
2019-05-03T06:18:35.872Z,88.20
2019-05-03T06:21:15.281Z,90.00
2019-05-03T06:23:47.912Z,89.60
2019-05-03T06:26:26.883Z,89.70
2019-05-03T06:28:55.432Z,90.20
2019-05-03T06:31:25.517Z,88.90
2019-05-03T06:33:55.364Z,88.40
2019-05-03T06:36:24.408Z,89.40
2019-05-03T06:38:54.653Z,88.80
2019-05-03T06:41:25.035Z,88.70
2019-05-03T06:43:55.204Z,87.80
2019-05-03T06:46:41.921Z,88.30
2019-05-03T06:49:10.400Z,88.20
2019-05-03T06:51:39.981Z,89.60
2019-05-03T06:54:09.076Z,89.30
2019-05-03T06:56:37.805Z,89.30
2019-05-03T06:59:08.037Z,87.40
2019-05-03T07:01:38.296Z,86.50
2019-05-03T07:04:11.409Z,86.60
2019-05-03T07:06:57.070Z,88.60
2019-05-03T07:09:27.190Z,88.70
2019-05-03T07:11:55.653Z,86.90
2019-05-03T07:14:24.819Z,88.40
2019-05-03T07:16:55.273Z,90.00
2019-05-03T07:19:24.998Z,90.70
2019-05-03T07:21:54.604Z,90.70
2019-05-03T07:24:22.514Z,90.60
2019-05-03T07:26:51.092Z,90.00
2019-05-03T07:29:19.679Z,89.30
2019-05-03T07:31:48.224Z,90.30
2019-05-03T07:34:16.684Z,89.70
2019-05-03T07:36:45.215Z,90.00
2019-05-03T07:39:14.543Z,90.50
2019-05-03T07:41:44.541Z,89.70
2019-05-03T07:44:12.633Z,89.70
2019-05-03T07:46:41.300Z,90.30
2019-05-03T07:49:09.769Z,90.50
2019-05-03T07:51:38.412Z,90.60
2019-05-03T07:54:06.968Z,90.90
2019-05-03T07:56:37.073Z,91.00
2019-05-03T07:59:07.005Z,90.00
2019-05-03T08:01:39.794Z,88.80
2019-05-03T08:04:08.437Z,87.20
2019-05-03T08:06:37.056Z,86.60
2019-05-03T08:09:07.683Z,84.60
2019-05-03T08:11:36.609Z,84.60
2019-05-03T08:14:06.692Z,84.20
2019-05-03T08:16:35.425Z,84.20
2019-05-03T08:19:04.926Z,84.00
2019-05-03T08:21:38.110Z,85.70
2019-05-03T08:26:57.997Z,85.90
2019-05-03T08:29:28.520Z,86.90
2019-05-03T08:31:58.691Z,87.30
2019-05-03T08:34:28.861Z,87.80
2019-05-03T08:37:02.088Z,87.90
2019-05-03T08:39:30.591Z,87.30
2019-05-03T08:42:00.678Z,86.40
2019-05-03T08:44:29.229Z,84.10
2019-05-03T08:49:55.381Z,84.90
2019-05-03T08:52:24.824Z,81.30
2019-05-03T08:54:55.035Z,84.10
2019-05-03T08:57:25.370Z,87.00
2019-05-03T08:59:54.959Z,83.80
2019-05-03T09:02:25.587Z,85.70
2019-05-03T09:04:54.668Z,84.80
2019-05-03T09:07:22.677Z,84.60
2019-05-03T09:09:54.868Z,83.90
2019-05-03T09:12:25.052Z,83.70
2019-05-03T09:14:54.648Z,84.00
2019-05-03T09:17:24.667Z,86.20
2019-05-03T09:22:35.930Z,85.10
2019-05-03T09:25:05.104Z,86.90
2019-05-03T09:27:34.383Z,88.30
2019-05-03T09:35:36.058Z,90.50
2019-05-03T09:40:57.132Z,90.80
2019-05-03T09:43:25.985Z,91.10
2019-05-03T09:45:54.789Z,90.70
2019-05-03T09:48:25.283Z,91.20
2019-05-03T09:50:55.422Z,90.60
2019-05-03T09:53:25.693Z,90.40
2019-05-03T09:55:55.577Z,91.40
2019-05-03T10:01:19.385Z,90.80
2019-05-03T10:03:59.697Z,92.10
2019-05-03T10:06:28.185Z,92.70
2019-05-03T10:09:10.684Z,92.20
2019-05-03T10:11:39.406Z,91.90
2019-05-03T10:14:09.407Z,91.50
2019-05-03T10:16:39.666Z,90.50
2019-05-03T10:19:08.255Z,89.70
2019-05-03T10:21:39.033Z,90.40
2019-05-03T10:24:15.214Z,90.90
2019-05-03T10:26:45.630Z,90.40
2019-05-03T10:29:15.224Z,90.30
2019-05-03T10:31:45.479Z,90.10
2019-05-03T10:34:15.520Z,89.70
2019-05-03T10:36:44.097Z,88.60
2019-05-03T10:39:12.678Z,88.30
2019-05-03T10:41:45.194Z,90.00
2019-05-03T10:44:15.068Z,88.30
2019-05-03T10:46:45.189Z,90.10
2019-05-03T10:49:15.360Z,89.70
2019-05-03T10:54:36.533Z,90.50
2019-05-03T10:59:47.178Z,90.20
2019-05-03T11:02:20.315Z,88.10
2019-05-03T11:04:50.040Z,89.50
2019-05-03T11:07:18.621Z,90.20
2019-05-03T11:09:51.852Z,88.10
2019-05-03T11:12:17.792Z,87.40
2019-05-03T11:14:48.396Z,86.90
2019-05-03T11:17:16.973Z,88.80
2019-05-03T11:19:45.599Z,87.70
2019-05-03T11:22:14.587Z,88.70
2019-05-03T11:24:45.416Z,87.40
2019-05-03T11:27:15.268Z,88.00
2019-05-03T11:29:45.030Z,88.60
2019-05-03T11:32:30.610Z,89.00
2019-05-03T11:35:15.012Z,88.00
2019-05-03T11:37:47.585Z,88.30
2019-05-03T11:40:16.972Z,88.60
2019-05-03T11:45:21.507Z,88.60
2019-05-03T11:47:50.165Z,87.80
2019-05-03T11:50:29.440Z,87.50
2019-05-03T11:55:46.588Z,89.70
2019-05-03T11:58:19.636Z,88.30
2019-05-03T12:00:50.738Z,89.00
2019-05-03T12:03:28.235Z,88.90
2019-05-03T12:05:58.340Z,87.20
2019-05-03T12:08:26.808Z,87.30
2019-05-03T12:11:01.048Z,88.20
2019-05-03T12:13:30.901Z,85.50
2019-05-03T12:16:00.451Z,87.60
2019-05-03T12:18:28.722Z,87.00
2019-05-03T12:21:01.930Z,89.40
2019-05-03T12:23:32.044Z,88.20
2019-05-03T12:26:06.326Z,87.80
2019-05-03T12:28:32.520Z,87.80
2019-05-03T12:31:00.996Z,89.20
2019-05-03T12:33:47.219Z,87.80
2019-05-03T12:36:19.412Z,88.10
2019-05-03T12:38:47.855Z,90.00
2019-05-03T12:41:16.293Z,90.90
2019-05-03T12:43:45.657Z,90.70
2019-05-03T12:46:16.998Z,91.40
2019-05-03T12:48:45.686Z,91.20
2019-05-03T12:51:15.214Z,90.50
2019-05-03T12:53:47.109Z,90.80
2019-05-03T12:56:22.669Z,92.20
2019-05-03T12:58:50.301Z,92.60
2019-05-03T13:01:40.940Z,91.50
2019-05-03T13:04:03.366Z,92.20
2019-05-03T13:06:34.624Z,92.50
2019-05-03T13:09:05.543Z,93.20
2019-05-03T13:11:36.577Z,94.20
2019-05-03T13:14:05.375Z,93.00
2019-05-03T13:16:35.335Z,93.20
2019-05-03T13:19:05.621Z,93.60
2019-05-03T13:21:35.563Z,93.50
2019-05-03T13:24:05.471Z,93.10
2019-05-03T13:26:35.063Z,93.00
2019-05-03T13:29:02.993Z,94.40
2019-05-03T13:31:31.458Z,93.70
2019-05-03T13:33:59.978Z,94.30
2019-05-03T13:36:28.413Z,94.40
2019-05-03T13:39:11.522Z,94.10
2019-05-03T13:41:27.114Z,93.40
2019-05-03T13:43:55.559Z,94.80
2019-05-03T13:46:24.672Z,94.70
2019-05-03T13:48:55.330Z,94.80
2019-05-03T13:51:25.344Z,95.30
2019-05-03T13:53:55.117Z,94.70
2019-05-03T13:56:24.669Z,95.20
2019-05-03T13:58:55.042Z,93.80
2019-05-03T14:01:25.080Z,95.10
2019-05-03T14:03:54.563Z,95.60
2019-05-03T14:06:24.253Z,95.30
2019-05-03T14:08:54.834Z,95.90
2019-05-03T14:11:23.002Z,95.80
2019-05-03T14:13:51.440Z,95.30
2019-05-03T14:16:20.250Z,95.30
2019-05-03T14:18:56.817Z,95.10
2019-05-03T14:21:44.744Z,95.10
2019-05-03T14:24:15.595Z,95.70
2019-05-03T14:26:46.409Z,95.00
2019-05-03T14:29:15.155Z,94.50
2019-05-03T14:31:45.459Z,94.80
2019-05-03T14:34:17.057Z,95.00
2019-05-03T14:39:34.846Z,94.00
2019-05-03T14:42:04.790Z,93.70
2019-05-03T14:44:50.788Z,93.70
2019-05-03T14:47:19.337Z,92.90
2019-05-03T14:49:47.858Z,93.10
2019-05-03T14:52:28.424Z,92.80
2019-05-03T14:55:07.022Z,92.90
2019-05-03T14:57:38.300Z,93.60
2019-05-03T15:00:25.318Z,93.40
2019-05-03T15:03:01.602Z,92.50
2019-05-03T15:05:30.216Z,92.90
2019-05-03T15:07:58.814Z,92.70
2019-05-03T15:10:27.258Z,93.10
2019-05-03T15:12:55.749Z,93.00
2019-05-03T15:15:25.119Z,93.30
2019-05-03T15:17:55.150Z,92.50
2019-05-03T15:20:25.509Z,92.60
2019-05-03T15:22:54.837Z,91.50
2019-05-03T15:25:25.071Z,91.70
2019-05-03T15:27:55.427Z,92.40
2019-05-03T15:30:25.596Z,92.10
2019-05-03T15:33:00.164Z,90.20
2019-05-03T15:35:25.850Z,91.90
2019-05-03T15:37:55.747Z,90.80
2019-05-03T15:40:25.070Z,91.20
2019-05-03T15:43:05.385Z,90.40
2019-05-03T15:45:45.076Z,90.30
2019-05-03T15:50:55.543Z,91.60
2019-05-03T15:53:24.708Z,90.90
2019-05-03T15:58:46.983Z,90.10
2019-05-03T16:01:16.064Z,90.80
2019-05-03T16:03:45.454Z,90.50
2019-05-03T16:06:15.561Z,91.30
2019-05-03T16:08:44.619Z,89.60
2019-05-03T16:11:14.849Z,89.70
2019-05-03T16:13:44.895Z,88.80
2019-05-03T16:16:15.161Z,89.10
2019-05-03T16:18:44.841Z,88.70
2019-05-03T16:21:14.681Z,89.10
2019-05-03T16:23:46.318Z,89.50
2019-05-03T16:26:14.335Z,90.00
2019-05-03T16:28:46.395Z,88.60
2019-05-03T16:31:16.444Z,88.00
2019-05-03T16:33:45.636Z,87.50
2019-05-03T16:36:14.833Z,88.20
2019-05-03T16:38:44.927Z,88.80
2019-05-03T16:41:17.511Z,88.00
2019-05-03T16:43:45.524Z,88.00
2019-05-03T16:46:17.423Z,87.80
2019-05-03T16:48:45.943Z,85.80
2019-05-03T16:51:15.031Z,86.20
2019-05-03T16:53:44.725Z,86.70
2019-05-03T16:56:15.032Z,87.30
2019-05-03T16:58:44.689Z,89.40
2019-05-03T17:01:17.517Z,88.50
2019-05-03T17:03:45.689Z,89.00
2019-05-03T17:06:18.977Z,89.50
2019-05-03T17:09:05.194Z,90.50
2019-05-03T17:11:34.694Z,91.40
2019-05-03T17:14:05.022Z,92.50
2019-05-03T17:16:34.435Z,93.20
2019-05-03T17:19:03.194Z,93.30
2019-05-03T17:21:31.907Z,93.40
2019-05-03T17:24:06.762Z,93.70
2019-05-03T17:26:35.267Z,93.80
2019-05-03T17:29:04.653Z,94.20
2019-05-03T17:31:55.109Z,93.90
2019-05-03T17:34:25.105Z,94.50
2019-05-03T17:36:54.488Z,94.40
2019-05-03T17:39:36.902Z,94.40
2019-05-03T17:42:14.678Z,94.50
2019-05-03T17:44:50.614Z,94.40
2019-05-03T17:47:19.075Z,94.20
2019-05-03T17:49:47.589Z,94.30
2019-05-03T17:52:19.001Z,94.70
2019-05-03T17:54:49.145Z,94.20
2019-05-03T17:57:25.227Z,93.50
2019-05-03T18:00:01.294Z,93.90
2019-05-03T18:02:45.122Z,94.60
2019-05-03T18:05:31.971Z,94.00
2019-05-03T18:08:18.562Z,94.50
2019-05-03T18:10:55.098Z,93.80
2019-05-03T18:13:24.773Z,93.80
2019-05-03T18:15:55.433Z,94.00
2019-05-03T18:18:24.721Z,93.80
2019-05-03T18:20:55.363Z,93.90
2019-05-03T18:23:24.641Z,93.80
2019-05-03T18:25:54.807Z,93.70
2019-05-03T18:28:44.756Z,94.00
2019-05-03T18:31:14.626Z,94.00
2019-05-03T18:33:44.285Z,93.30
2019-05-03T18:36:17.396Z,91.70
2019-05-03T18:38:51.690Z,92.70
2019-05-03T18:41:20.234Z,92.60
2019-05-03T18:43:50.739Z,92.90
2019-05-03T18:46:21.387Z,93.30
2019-05-03T18:48:50.026Z,93.10
2019-05-03T18:51:22.263Z,93.00
2019-05-03T18:53:50.842Z,93.70
2019-05-03T18:56:19.899Z,93.90
2019-05-03T18:58:48.348Z,94.10
2019-05-03T19:01:16.794Z,94.00
2019-05-03T19:03:48.148Z,94.30
2019-05-03T19:06:18.855Z,94.50
2019-05-03T19:09:05.321Z,94.50
2019-05-03T19:11:44.698Z,94.20
2019-05-03T19:14:17.839Z,94.70
2019-05-03T19:17:06.061Z,94.60
2019-05-03T19:19:36.216Z,94.90
2019-05-03T19:22:05.140Z,95.10
2019-05-03T19:24:35.110Z,95.20
2019-05-03T19:27:06.941Z,95.50
2019-05-03T19:29:36.252Z,95.80
2019-05-03T19:32:05.318Z,96.20
2019-05-03T19:34:46.929Z,96.30
2019-05-03T19:37:05.316Z,96.40
2019-05-03T19:39:34.588Z,96.50
2019-05-03T19:42:03.966Z,96.40
2019-05-03T19:44:32.469Z,96.30
2019-05-03T19:47:00.917Z,96.30
2019-05-03T19:49:29.532Z,96.60
2019-05-03T19:51:57.981Z,96.50
2019-05-03T19:54:26.429Z,97.00
2019-05-03T19:56:55.665Z,97.20
2019-05-03T19:59:38.295Z,97.20
2019-05-03T20:02:08.476Z,97.50
2019-05-03T20:04:41.076Z,98.10
2019-05-03T20:07:11.237Z,98.00
2019-05-03T20:09:39.725Z,98.20
2019-05-03T20:12:08.164Z,98.40
2019-05-03T20:14:36.625Z,98.40
2019-05-03T20:17:06.794Z,98.40
2019-05-03T20:19:35.450Z,98.50
2019-05-03T20:22:05.139Z,98.60
2019-05-03T20:24:33.920Z,98.50
2019-05-03T20:27:04.616Z,98.50
2019-05-03T20:29:34.400Z,98.60
2019-05-03T20:32:02.880Z,98.60
2019-05-03T20:34:31.325Z,98.90
2019-05-03T20:37:05.183Z,98.80
2019-05-03T20:39:34.831Z,99.10
2019-05-03T20:42:02.104Z,98.80
2019-05-03T20:44:37.965Z,99.00
2019-05-03T20:47:16.727Z,99.10
2019-05-03T20:49:46.917Z,99.00
2019-05-03T20:52:15.451Z,98.90
2019-05-03T20:54:47.974Z,98.90
2019-05-03T20:57:16.497Z,98.80
2019-05-03T20:59:48.697Z,98.90
2019-05-03T21:02:15.363Z,98.90
2019-05-03T21:04:43.953Z,98.80
2019-05-03T21:07:12.575Z,99.00
2019-05-03T21:09:41.075Z,98.70
2019-05-03T21:12:09.615Z,98.60
2019-05-03T21:14:38.125Z,98.90
2019-05-03T21:17:14.971Z,98.60
2019-05-03T21:19:48.232Z,98.40
2019-05-03T21:22:31.078Z,98.50
2019-05-03T21:25:01.163Z,98.60
2019-05-03T21:27:29.642Z,98.70
2019-05-03T21:29:58.317Z,98.70
2019-05-03T21:32:26.899Z,98.60
2019-05-03T21:34:55.845Z,98.90
2019-05-03T21:37:24.594Z,99.00
2019-05-03T21:39:54.832Z,99.30
2019-05-03T21:42:23.466Z,99.10
2019-05-03T21:44:52.080Z,99.00
2019-05-03T21:47:31.012Z,99.10
2019-05-03T21:50:00.604Z,99.20
2019-05-03T21:52:29.043Z,99.40
2019-05-03T21:54:57.521Z,99.60
2019-05-03T21:57:25.962Z,99.70
2019-05-03T22:00:14.950Z,99.80
2019-05-03T22:02:43.472Z,99.70
2019-05-03T22:05:12.136Z,99.60
2019-05-03T22:07:40.650Z,99.70
2019-05-03T22:10:09.564Z,99.80
2019-05-03T22:12:38.008Z,99.80
2019-05-03T22:15:08.538Z,99.80
2019-05-03T22:17:53.527Z,99.90
2019-05-03T22:20:36.024Z,99.90
2019-05-03T22:23:06.160Z,99.90
2019-05-03T22:25:36.237Z,99.90
2019-05-03T22:28:07.114Z,99.90
2019-05-03T22:30:35.239Z,99.90
2019-05-03T22:33:05.205Z,99.90
2019-05-03T22:35:35.260Z,99.90
2019-05-03T22:38:06.277Z,99.90
2019-05-03T22:40:35.408Z,99.90
2019-05-03T22:43:04.201Z,99.90
2019-05-03T22:45:34.753Z,99.90
2019-05-03T22:48:02.840Z,99.90
2019-05-03T22:50:31.286Z,99.90
2019-05-03T22:52:59.757Z,99.90
2019-05-03T22:55:28.196Z,99.90
2019-05-03T22:57:56.640Z,99.90
2019-05-03T23:00:25.361Z,99.90
2019-05-03T23:02:54.786Z,99.90
2019-05-03T23:05:23.441Z,99.90
2019-05-03T23:07:51.921Z,99.90
2019-05-03T23:10:20.513Z,99.90
2019-05-03T23:12:48.972Z,99.90
2019-05-03T23:15:17.453Z,99.90
2019-05-03T23:17:45.925Z,99.90
2019-05-03T23:20:18.712Z,99.90
2019-05-03T23:22:47.189Z,99.90
2019-05-03T23:25:15.716Z,99.90
2019-05-03T23:27:44.531Z,99.90
2019-05-03T23:30:15.297Z,99.90
2019-05-03T23:32:45.264Z,99.90
2019-05-03T23:35:13.984Z,99.90
2019-05-03T23:37:42.473Z,99.90
2019-05-03T23:40:11.053Z,99.90
2019-05-03T23:42:39.507Z,99.90
2019-05-03T23:45:08.232Z,99.90
2019-05-03T23:47:38.317Z,99.90
2019-05-03T23:50:09.443Z,99.90
2019-05-03T23:52:37.987Z,99.90
2019-05-03T23:55:12.384Z,99.90
2019-05-03T23:57:40.836Z,99.90
